sensor_id;sensor_type;location;lat;lon;timestamp;temperature;humidity
23124;DHT22;11731;48.592;8.858;2023-04-24T00:00:16;14.00;99.90
23124;DHT22;11731;48.592;8.858;2023-04-24T00:02:50;13.90;99.90
23124;DHT22;11731;48.592;8.858;2023-04-24T00:05:17;13.70;99.90
23124;DHT22;11731;48.592;8.858;2023-04-24T00:07:45;13.40;99.90
23124;DHT22;11731;48.592;8.858;2023-04-24T00:12:32;12.70;99.90
23124;DHT22;11731;48.592;8.858;2023-04-24T00:13:27;12.50;99.90
23124;DHT22;11731;48.592;8.858;2023-04-24T00:15:56;12.90;99.90
23124;DHT22;11731;48.592;8.858;2023-04-24T00:18:45;13.00;99.90
23124;DHT22;11731;48.592;8.858;2023-04-24T00:21:13;13.10;99.90
23124;DHT22;11731;48.592;8.858;2023-04-24T00:23:40;12.70;99.90
23124;DHT22;11731;48.592;8.858;2023-04-24T00:26:07;12.50;99.90
23124;DHT22;11731;48.592;8.858;2023-04-24T00:28:37;12.30;99.90
23124;DHT22;11731;48.592;8.858;2023-04-24T00:31:06;12.60;99.90
23124;DHT22;11731;48.592;8.858;2023-04-24T00:33:48;12.90;99.90
23124;DHT22;11731;48.592;8.858;2023-04-24T00:36:15;12.80;99.90
23124;DHT22;11731;48.592;8.858;2023-04-24T00:38:42;12.70;99.90
23124;DHT22;11731;48.592;8.858;2023-04-24T00:41:09;12.70;99.90
23124;DHT22;11731;48.592;8.858;2023-04-24T00:43:41;12.80;99.90
23124;DHT22;11731;48.592;8.858;2023-04-24T00:46:14;12.80;99.90
23124;DHT22;11731;48.592;8.858;2023-04-24T00:52:02;12.30;99.90
23124;DHT22;11731;48.592;8.858;2023-04-24T00:54:40;12.10;99.90
23124;DHT22;11731;48.592;8.858;2023-04-24T01:00:19;12.30;99.90
23124;DHT22;11731;48.592;8.858;2023-04-24T01:02:51;12.30;99.90
23124;DHT22;11731;48.592;8.858;2023-04-24T01:05:30;12.40;99.90
23124;DHT22;11731;48.592;8.858;2023-04-24T01:07:59;12.50;99.90
23124;DHT22;11731;48.592;8.858;2023-04-24T01:10:41;12.90;99.90
23124;DHT22;11731;48.592;8.858;2023-04-24T01:13:18;12.90;99.90
23124;DHT22;11731;48.592;8.858;2023-04-24T01:16:06;13.20;99.90
23124;DHT22;11731;48.592;8.858;2023-04-24T01:18:33;13.00;99.90
23124;DHT22;11731;48.592;8.858;2023-04-24T01:21:03;12.90;99.90
23124;DHT22;11731;48.592;8.858;2023-04-24T01:23:58;13.30;99.90
23124;DHT22;11731;48.592;8.858;2023-04-24T01:26:25;13.50;99.90
23124;DHT22;11731;48.592;8.858;2023-04-24T01:36:33;13.30;99.90
23124;DHT22;11731;48.592;8.858;2023-04-24T01:39:05;13.20;99.90
23124;DHT22;11731;48.592;8.858;2023-04-24T01:41:33;13.00;99.90
23124;DHT22;11731;48.592;8.858;2023-04-24T01:44:02;13.00;99.90
23124;DHT22;11731;48.592;8.858;2023-04-24T01:46:30;12.90;99.90
23124;DHT22;11731;48.592;8.858;2023-04-24T01:52:05;12.70;99.90
23124;DHT22;11731;48.592;8.858;2023-04-24T01:54:36;12.40;99.90
23124;DHT22;11731;48.592;8.858;2023-04-24T01:57:08;12.50;99.90
23124;DHT22;11731;48.592;8.858;2023-04-24T02:00:02;12.70;99.90
23124;DHT22;11731;48.592;8.858;2023-04-24T02:02:51;12.60;99.90
23124;DHT22;11731;48.592;8.858;2023-04-24T02:07:27;12.70;99.90
23124;DHT22;11731;48.592;8.858;2023-04-24T02:08:40;12.70;99.90
23124;DHT22;11731;48.592;8.858;2023-04-24T02:11:10;12.60;99.90
23124;DHT22;11731;48.592;8.858;2023-04-24T02:13:37;12.70;99.90
23124;DHT22;11731;48.592;8.858;2023-04-24T02:16:04;13.00;99.90
23124;DHT22;11731;48.592;8.858;2023-04-24T02:18:33;13.10;99.90
23124;DHT22;11731;48.592;8.858;2023-04-24T02:24:15;12.80;99.90
23124;DHT22;11731;48.592;8.858;2023-04-24T02:26:49;12.90;99.90
23124;DHT22;11731;48.592;8.858;2023-04-24T02:34:21;12.70;99.90
23124;DHT22;11731;48.592;8.858;2023-04-24T02:46:48;12.60;99.90
23124;DHT22;11731;48.592;8.858;2023-04-24T02:49:15;12.60;99.90
23124;DHT22;11731;48.592;8.858;2023-04-24T02:51:42;12.80;99.90
23124;DHT22;11731;48.592;8.858;2023-04-24T02:54:29;12.40;99.90
23124;DHT22;11731;48.592;8.858;2023-04-24T02:58:03;12.50;99.90
23124;DHT22;11731;48.592;8.858;2023-04-24T03:00:03;12.30;99.90
23124;DHT22;11731;48.592;8.858;2023-04-24T03:03:40;12.40;99.90
23124;DHT22;11731;48.592;8.858;2023-04-24T03:05:39;12.50;99.90
23124;DHT22;11731;48.592;8.858;2023-04-24T03:08:08;12.40;99.90
23124;DHT22;11731;48.592;8.858;2023-04-24T03:10:49;12.30;99.90
23124;DHT22;11731;48.592;8.858;2023-04-24T03:15:28;12.20;99.90
23124;DHT22;11731;48.592;8.858;2023-04-24T03:16:43;12.00;99.90
23124;DHT22;11731;48.592;8.858;2023-04-24T03:22:20;11.90;99.90
23124;DHT22;11731;48.592;8.858;2023-04-24T03:25:02;11.70;99.90
23124;DHT22;11731;48.592;8.858;2023-04-24T03:28:35;12.00;99.90
23124;DHT22;11731;48.592;8.858;2023-04-24T03:30:20;11.80;99.90
23124;DHT22;11731;48.592;8.858;2023-04-24T03:33:44;11.60;99.90
23124;DHT22;11731;48.592;8.858;2023-04-24T03:42:34;11.70;99.90
23124;DHT22;11731;48.592;8.858;2023-04-24T03:45:08;11.70;99.90
23124;DHT22;11731;48.592;8.858;2023-04-24T03:47:40;11.80;99.90
23124;DHT22;11731;48.592;8.858;2023-04-24T03:50:07;11.90;99.90
23124;DHT22;11731;48.592;8.858;2023-04-24T03:53:04;12.10;99.90
23124;DHT22;11731;48.592;8.858;2023-04-24T03:56:07;12.30;99.90
23124;DHT22;11731;48.592;8.858;2023-04-24T03:58:36;12.30;99.90
23124;DHT22;11731;48.592;8.858;2023-04-24T04:01:04;12.40;99.90
23124;DHT22;11731;48.592;8.858;2023-04-24T04:03:31;12.20;99.90
23124;DHT22;11731;48.592;8.858;2023-04-24T04:06:00;11.60;99.90
23124;DHT22;11731;48.592;8.858;2023-04-24T04:15:38;11.90;99.90
23124;DHT22;11731;48.592;8.858;2023-04-24T04:18:05;11.70;99.90
23124;DHT22;11731;48.592;8.858;2023-04-24T04:20:32;11.50;99.90
23124;DHT22;11731;48.592;8.858;2023-04-24T04:23:01;11.30;99.90
23124;DHT22;11731;48.592;8.858;2023-04-24T04:25:42;11.10;99.90
23124;DHT22;11731;48.592;8.858;2023-04-24T04:28:09;11.20;99.90
23124;DHT22;11731;48.592;8.858;2023-04-24T04:30:39;11.10;99.90
23124;DHT22;11731;48.592;8.858;2023-04-24T04:33:10;11.20;99.90
23124;DHT22;11731;48.592;8.858;2023-04-24T04:35:40;11.50;99.90
23124;DHT22;11731;48.592;8.858;2023-04-24T04:38:08;11.50;99.90
23124;DHT22;11731;48.592;8.858;2023-04-24T04:40:36;11.60;99.90
23124;DHT22;11731;48.592;8.858;2023-04-24T04:46:08;11.50;99.90
23124;DHT22;11731;48.592;8.858;2023-04-24T04:48:36;10.70;99.90
23124;DHT22;11731;48.592;8.858;2023-04-24T04:51:17;10.60;99.90
23124;DHT22;11731;48.592;8.858;2023-04-24T04:53:44;10.60;99.90
23124;DHT22;11731;48.592;8.858;2023-04-24T04:56:11;10.70;99.90
23124;DHT22;11731;48.592;8.858;2023-04-24T04:58:38;11.00;99.90
23124;DHT22;11731;48.592;8.858;2023-04-24T05:01:05;10.80;99.90
23124;DHT22;11731;48.592;8.858;2023-04-24T05:03:33;10.50;99.90
23124;DHT22;11731;48.592;8.858;2023-04-24T05:06:03;10.70;99.90
23124;DHT22;11731;48.592;8.858;2023-04-24T05:08:37;11.10;99.90
23124;DHT22;11731;48.592;8.858;2023-04-24T05:11:04;11.30;99.90
23124;DHT22;11731;48.592;8.858;2023-04-24T05:13:31;11.20;99.90
23124;DHT22;11731;48.592;8.858;2023-04-24T05:15:58;10.80;99.90
23124;DHT22;11731;48.592;8.858;2023-04-24T05:18:36;10.90;99.90
23124;DHT22;11731;48.592;8.858;2023-04-24T05:21:30;11.30;99.90
23124;DHT22;11731;48.592;8.858;2023-04-24T05:28:05;11.80;99.90
23124;DHT22;11731;48.592;8.858;2023-04-24T05:30:32;11.90;99.90
23124;DHT22;11731;48.592;8.858;2023-04-24T05:33:28;12.00;99.90
23124;DHT22;11731;48.592;8.858;2023-04-24T05:39:07;12.30;99.90
23124;DHT22;11731;48.592;8.858;2023-04-24T05:44:31;12.50;99.90
23124;DHT22;11731;48.592;8.858;2023-04-24T05:47:23;12.30;99.90
23124;DHT22;11731;48.592;8.858;2023-04-24T05:49:52;11.70;99.90
23124;DHT22;11731;48.592;8.858;2023-04-24T05:52:19;11.60;99.90
23124;DHT22;11731;48.592;8.858;2023-04-24T05:54:50;11.60;99.90
23124;DHT22;11731;48.592;8.858;2023-04-24T05:58:41;11.50;99.90
23124;DHT22;11731;48.592;8.858;2023-04-24T06:00:34;11.70;99.90
23124;DHT22;11731;48.592;8.858;2023-04-24T06:03:22;12.10;99.90
23124;DHT22;11731;48.592;8.858;2023-04-24T06:06:51;12.40;99.90
23124;DHT22;11731;48.592;8.858;2023-04-24T06:09:26;12.90;99.90
23124;DHT22;11731;48.592;8.858;2023-04-24T06:11:54;13.10;99.90
23124;DHT22;11731;48.592;8.858;2023-04-24T06:14:25;13.00;99.90
23124;DHT22;11731;48.592;8.858;2023-04-24T06:16:54;12.90;99.90
23124;DHT22;11731;48.592;8.858;2023-04-24T06:19:34;13.00;99.90
23124;DHT22;11731;48.592;8.858;2023-04-24T06:22:04;13.30;99.90
23124;DHT22;11731;48.592;8.858;2023-04-24T06:24:31;13.10;99.90
23124;DHT22;11731;48.592;8.858;2023-04-24T06:27:00;13.40;99.90
23124;DHT22;11731;48.592;8.858;2023-04-24T06:29:27;13.50;99.90
23124;DHT22;11731;48.592;8.858;2023-04-24T06:31:55;14.20;99.90
23124;DHT22;11731;48.592;8.858;2023-04-24T06:34:29;14.30;99.90
23124;DHT22;11731;48.592;8.858;2023-04-24T06:36:58;13.20;99.90
23124;DHT22;11731;48.592;8.858;2023-04-24T06:39:25;12.20;99.90
23124;DHT22;11731;48.592;8.858;2023-04-24T06:41:52;12.20;99.90
23124;DHT22;11731;48.592;8.858;2023-04-24T06:44:20;12.10;99.90
23124;DHT22;11731;48.592;8.858;2023-04-24T06:46:47;12.40;99.90
23124;DHT22;11731;48.592;8.858;2023-04-24T06:49:14;12.70;99.90
23124;DHT22;11731;48.592;8.858;2023-04-24T06:51:41;12.40;99.90
23124;DHT22;11731;48.592;8.858;2023-04-24T06:54:27;11.90;99.90
23124;DHT22;11731;48.592;8.858;2023-04-24T06:57:34;12.00;99.90
23124;DHT22;11731;48.592;8.858;2023-04-24T07:00:03;11.90;99.90
23124;DHT22;11731;48.592;8.858;2023-04-24T07:02:56;11.10;99.90
23124;DHT22;11731;48.592;8.858;2023-04-24T07:05:23;10.70;99.90
23124;DHT22;11731;48.592;8.858;2023-04-24T07:07:50;10.60;99.90
23124;DHT22;11731;48.592;8.858;2023-04-24T07:10:17;10.50;99.90
23124;DHT22;11731;48.592;8.858;2023-04-24T07:12:45;10.60;99.90
23124;DHT22;11731;48.592;8.858;2023-04-24T07:15:14;11.00;99.90
23124;DHT22;11731;48.592;8.858;2023-04-24T07:17:41;11.30;99.90
23124;DHT22;11731;48.592;8.858;2023-04-24T07:20:09;11.00;99.90
23124;DHT22;11731;48.592;8.858;2023-04-24T07:22:37;10.80;99.90
23124;DHT22;11731;48.592;8.858;2023-04-24T07:25:05;10.90;99.90
23124;DHT22;11731;48.592;8.858;2023-04-24T07:27:32;11.00;99.90
23124;DHT22;11731;48.592;8.858;2023-04-24T07:29:59;11.20;99.90
23124;DHT22;11731;48.592;8.858;2023-04-24T07:32:27;11.10;99.90
23124;DHT22;11731;48.592;8.858;2023-04-24T07:34:54;11.10;99.90
23124;DHT22;11731;48.592;8.858;2023-04-24T07:37:21;11.10;99.90
23124;DHT22;11731;48.592;8.858;2023-04-24T07:39:49;11.20;99.90
23124;DHT22;11731;48.592;8.858;2023-04-24T07:42:16;11.50;99.90
23124;DHT22;11731;48.592;8.858;2023-04-24T07:44:43;11.40;99.90
23124;DHT22;11731;48.592;8.858;2023-04-24T07:47:11;11.40;99.90
23124;DHT22;11731;48.592;8.858;2023-04-24T07:49:39;11.40;99.90
23124;DHT22;11731;48.592;8.858;2023-04-24T07:52:07;11.40;99.90
23124;DHT22;11731;48.592;8.858;2023-04-24T07:54:34;11.50;99.90
23124;DHT22;11731;48.592;8.858;2023-04-24T07:57:02;11.70;99.90
23124;DHT22;11731;48.592;8.858;2023-04-24T07:59:29;11.60;99.90
23124;DHT22;11731;48.592;8.858;2023-04-24T08:01:56;11.30;99.90
23124;DHT22;11731;48.592;8.858;2023-04-24T08:04:23;11.50;99.90
23124;DHT22;11731;48.592;8.858;2023-04-24T08:06:51;11.30;99.90
23124;DHT22;11731;48.592;8.858;2023-04-24T08:09:18;11.30;99.90
23124;DHT22;11731;48.592;8.858;2023-04-24T08:11:45;11.40;99.90
23124;DHT22;11731;48.592;8.858;2023-04-24T08:14:12;11.60;99.90
23124;DHT22;11731;48.592;8.858;2023-04-24T08:16:40;11.50;99.90
23124;DHT22;11731;48.592;8.858;2023-04-24T08:19:07;11.40;99.90
23124;DHT22;11731;48.592;8.858;2023-04-24T08:21:34;11.70;99.90
23124;DHT22;11731;48.592;8.858;2023-04-24T08:24:02;11.40;99.90
23124;DHT22;11731;48.592;8.858;2023-04-24T08:26:33;11.50;99.90
23124;DHT22;11731;48.592;8.858;2023-04-24T08:29:00;11.80;99.90
23124;DHT22;11731;48.592;8.858;2023-04-24T08:31:27;11.50;99.90
23124;DHT22;11731;48.592;8.858;2023-04-24T08:33:54;11.50;99.90
23124;DHT22;11731;48.592;8.858;2023-04-24T08:36:21;11.60;99.90
23124;DHT22;11731;48.592;8.858;2023-04-24T08:38:50;11.20;99.90
23124;DHT22;11731;48.592;8.858;2023-04-24T08:41:19;11.00;99.90
23124;DHT22;11731;48.592;8.858;2023-04-24T08:43:46;11.10;99.90
23124;DHT22;11731;48.592;8.858;2023-04-24T08:46:15;11.30;99.90
23124;DHT22;11731;48.592;8.858;2023-04-24T08:48:42;11.30;99.90
23124;DHT22;11731;48.592;8.858;2023-04-24T08:51:09;11.40;99.90
23124;DHT22;11731;48.592;8.858;2023-04-24T08:53:37;11.30;99.90
23124;DHT22;11731;48.592;8.858;2023-04-24T08:56:04;11.10;99.90
23124;DHT22;11731;48.592;8.858;2023-04-24T08:58:33;11.50;99.90
23124;DHT22;11731;48.592;8.858;2023-04-24T09:01:00;11.40;99.90
23124;DHT22;11731;48.592;8.858;2023-04-24T09:03:28;11.30;99.90
23124;DHT22;11731;48.592;8.858;2023-04-24T09:05:55;11.10;99.60
23124;DHT22;11731;48.592;8.858;2023-04-24T09:08:24;11.10;99.90
23124;DHT22;11731;48.592;8.858;2023-04-24T09:10:52;11.10;99.90
23124;DHT22;11731;48.592;8.858;2023-04-24T09:13:19;11.40;99.90
23124;DHT22;11731;48.592;8.858;2023-04-24T09:15:48;11.90;99.90
23124;DHT22;11731;48.592;8.858;2023-04-24T09:18:15;12.00;99.90
23124;DHT22;11731;48.592;8.858;2023-04-24T09:20:57;12.10;99.90
23124;DHT22;11731;48.592;8.858;2023-04-24T09:23:26;11.40;98.60
23124;DHT22;11731;48.592;8.858;2023-04-24T09:25:55;11.40;98.60
23124;DHT22;11731;48.592;8.858;2023-04-24T09:28:26;11.60;98.80
23124;DHT22;11731;48.592;8.858;2023-04-24T09:31:08;11.80;99.30
23124;DHT22;11731;48.592;8.858;2023-04-24T09:33:36;12.00;98.10
23124;DHT22;11731;48.592;8.858;2023-04-24T09:36:03;12.20;97.40
23124;DHT22;11731;48.592;8.858;2023-04-24T09:38:32;12.30;97.40
23124;DHT22;11731;48.592;8.858;2023-04-24T09:41:00;12.30;97.30
23124;DHT22;11731;48.592;8.858;2023-04-24T09:43:28;12.20;95.70
23124;DHT22;11731;48.592;8.858;2023-04-24T09:46:00;12.10;95.30
23124;DHT22;11731;48.592;8.858;2023-04-24T09:48:32;11.80;94.30
23124;DHT22;11731;48.592;8.858;2023-04-24T09:51:00;11.90;94.80
23124;DHT22;11731;48.592;8.858;2023-04-24T09:53:29;12.10;94.80
23124;DHT22;11731;48.592;8.858;2023-04-24T09:56:00;12.40;95.00
23124;DHT22;11731;48.592;8.858;2023-04-24T09:58:29;12.20;95.20
23124;DHT22;11731;48.592;8.858;2023-04-24T10:00:56;12.30;96.20
23124;DHT22;11731;48.592;8.858;2023-04-24T10:03:25;12.40;95.80
23124;DHT22;11731;48.592;8.858;2023-04-24T10:05:58;12.20;95.70
23124;DHT22;11731;48.592;8.858;2023-04-24T10:08:25;12.00;96.00
23124;DHT22;11731;48.592;8.858;2023-04-24T10:10:53;11.70;96.30
23124;DHT22;11731;48.592;8.858;2023-04-24T10:13:19;11.40;96.60
23124;DHT22;11731;48.592;8.858;2023-04-24T10:15:47;11.70;96.70
23124;DHT22;11731;48.592;8.858;2023-04-24T10:18:15;11.80;96.50
23124;DHT22;11731;48.592;8.858;2023-04-24T10:20:42;11.60;98.00
23124;DHT22;11731;48.592;8.858;2023-04-24T10:23:11;11.50;97.70
23124;DHT22;11731;48.592;8.858;2023-04-24T10:25:38;11.80;98.00
23124;DHT22;11731;48.592;8.858;2023-04-24T10:28:05;12.00;98.10
23124;DHT22;11731;48.592;8.858;2023-04-24T10:30:33;12.10;98.70
23124;DHT22;11731;48.592;8.858;2023-04-24T10:33:01;12.40;97.50
23124;DHT22;11731;48.592;8.858;2023-04-24T10:35:31;12.10;98.00
23124;DHT22;11731;48.592;8.858;2023-04-24T10:38:01;12.00;98.80
23124;DHT22;11731;48.592;8.858;2023-04-24T10:40:32;12.00;97.80
23124;DHT22;11731;48.592;8.858;2023-04-24T10:43:01;12.20;98.60
23124;DHT22;11731;48.592;8.858;2023-04-24T10:45:28;12.30;99.00
23124;DHT22;11731;48.592;8.858;2023-04-24T10:47:59;12.40;97.40
23124;DHT22;11731;48.592;8.858;2023-04-24T10:50:28;11.70;97.50
23124;DHT22;11731;48.592;8.858;2023-04-24T10:53:05;11.50;98.50
23124;DHT22;11731;48.592;8.858;2023-04-24T10:55:45;11.70;98.50
23124;DHT22;11731;48.592;8.858;2023-04-24T10:58:12;11.50;98.70
23124;DHT22;11731;48.592;8.858;2023-04-24T11:00:41;11.60;99.30
23124;DHT22;11731;48.592;8.858;2023-04-24T11:03:23;11.90;98.80
23124;DHT22;11731;48.592;8.858;2023-04-24T11:05:58;12.50;98.10
23124;DHT22;11731;48.592;8.858;2023-04-24T11:08:27;12.70;98.40
23124;DHT22;11731;48.592;8.858;2023-04-24T11:10:58;12.70;98.00
23124;DHT22;11731;48.592;8.858;2023-04-24T11:13:27;12.90;97.50
23124;DHT22;11731;48.592;8.858;2023-04-24T11:16:20;12.90;98.40
23124;DHT22;11731;48.592;8.858;2023-04-24T11:18:51;12.20;97.90
23124;DHT22;11731;48.592;8.858;2023-04-24T11:21:20;11.60;99.20
23124;DHT22;11731;48.592;8.858;2023-04-24T11:23:47;11.40;99.10
23124;DHT22;11731;48.592;8.858;2023-04-24T11:26:20;11.20;99.20
23124;DHT22;11731;48.592;8.858;2023-04-24T11:28:50;11.40;99.80
23124;DHT22;11731;48.592;8.858;2023-04-24T11:31:37;11.60;99.80
23124;DHT22;11731;48.592;8.858;2023-04-24T11:34:08;11.60;99.90
23124;DHT22;11731;48.592;8.858;2023-04-24T11:36:35;12.00;99.90
23124;DHT22;11731;48.592;8.858;2023-04-24T11:39:02;12.00;99.50
23124;DHT22;11731;48.592;8.858;2023-04-24T11:41:31;12.40;99.50
23124;DHT22;11731;48.592;8.858;2023-04-24T11:43:58;12.40;98.60
23124;DHT22;11731;48.592;8.858;2023-04-24T11:46:29;12.40;98.10
23124;DHT22;11731;48.592;8.858;2023-04-24T11:48:57;12.40;98.20
23124;DHT22;11731;48.592;8.858;2023-04-24T11:51:25;12.20;98.80
23124;DHT22;11731;48.592;8.858;2023-04-24T11:53:53;12.20;98.20
23124;DHT22;11731;48.592;8.858;2023-04-24T12:05:28;11.60;98.40
23124;DHT22;11731;48.592;8.858;2023-04-24T12:07:56;11.80;98.90
23124;DHT22;11731;48.592;8.858;2023-04-24T12:10:47;12.00;98.80
23124;DHT22;11731;48.592;8.858;2023-04-24T12:22:50;12.20;98.50
23124;DHT22;11731;48.592;8.858;2023-04-24T12:25:33;12.10;98.50
23124;DHT22;11731;48.592;8.858;2023-04-24T12:28:34;11.70;99.60
23124;DHT22;11731;48.592;8.858;2023-04-24T12:31:25;11.60;99.90
23124;DHT22;11731;48.592;8.858;2023-04-24T12:33:55;11.80;99.90
23124;DHT22;11731;48.592;8.858;2023-04-24T12:38:58;12.50;99.90
23124;DHT22;11731;48.592;8.858;2023-04-24T12:44:34;11.70;99.90
23124;DHT22;11731;48.592;8.858;2023-04-24T12:47:02;11.50;99.90
23124;DHT22;11731;48.592;8.858;2023-04-24T12:49:30;11.30;99.90
23124;DHT22;11731;48.592;8.858;2023-04-24T12:53:39;11.50;99.90
23124;DHT22;11731;48.592;8.858;2023-04-24T12:58:42;12.20;99.90
23124;DHT22;11731;48.592;8.858;2023-04-24T13:01:09;12.00;98.70
23124;DHT22;11731;48.592;8.858;2023-04-24T13:03:36;11.90;99.70
23124;DHT22;11731;48.592;8.858;2023-04-24T13:11:26;11.90;98.60
23124;DHT22;11731;48.592;8.858;2023-04-24T13:17:32;12.00;98.50
23124;DHT22;11731;48.592;8.858;2023-04-24T13:20:15;12.10;97.70
23124;DHT22;11731;48.592;8.858;2023-04-24T13:22:42;12.40;97.00
23124;DHT22;11731;48.592;8.858;2023-04-24T13:25:27;12.60;96.40
23124;DHT22;11731;48.592;8.858;2023-04-24T13:27:55;12.50;96.60
23124;DHT22;11731;48.592;8.858;2023-04-24T13:30:22;12.80;97.10
23124;DHT22;11731;48.592;8.858;2023-04-24T13:32:50;13.00;96.60
23124;DHT22;11731;48.592;8.858;2023-04-24T13:35:31;12.40;96.40
23124;DHT22;11731;48.592;8.858;2023-04-24T13:41:38;12.70;97.20
23124;DHT22;11731;48.592;8.858;2023-04-24T13:44:37;12.70;96.80
23124;DHT22;11731;48.592;8.858;2023-04-24T14:09:42;11.70;97.70
23124;DHT22;11731;48.592;8.858;2023-04-24T14:12:46;12.00;97.50
23124;DHT22;11731;48.592;8.858;2023-04-24T14:15:13;12.10;97.40
23124;DHT22;11731;48.592;8.858;2023-04-24T14:18:19;12.10;97.50
23124;DHT22;11731;48.592;8.858;2023-04-24T14:20:45;12.00;97.50
23124;DHT22;11731;48.592;8.858;2023-04-24T14:23:12;12.20;97.60
23124;DHT22;11731;48.592;8.858;2023-04-24T14:25:48;12.50;97.40
23124;DHT22;11731;48.592;8.858;2023-04-24T14:32:40;13.00;96.30
23124;DHT22;11731;48.592;8.858;2023-04-24T14:34:57;12.50;96.40
23124;DHT22;11731;48.592;8.858;2023-04-24T14:38:27;12.20;96.50
23124;DHT22;11731;48.592;8.858;2023-04-24T14:40:23;12.20;96.80
23124;DHT22;11731;48.592;8.858;2023-04-24T14:42:59;12.00;97.30
23124;DHT22;11731;48.592;8.858;2023-04-24T14:48:43;12.00;98.20
23124;DHT22;11731;48.592;8.858;2023-04-24T14:51:12;12.00;97.10
23124;DHT22;11731;48.592;8.858;2023-04-24T14:53:59;12.30;97.70
23124;DHT22;11731;48.592;8.858;2023-04-24T14:56:29;12.70;96.70
23124;DHT22;11731;48.592;8.858;2023-04-24T15:05:43;13.10;96.50
23124;DHT22;11731;48.592;8.858;2023-04-24T15:12:21;13.10;95.90
23124;DHT22;11731;48.592;8.858;2023-04-24T15:14:38;12.90;95.90
23124;DHT22;11731;48.592;8.858;2023-04-24T15:17:14;13.30;97.20
23124;DHT22;11731;48.592;8.858;2023-04-24T15:22:23;13.10;95.30
23124;DHT22;11731;48.592;8.858;2023-04-24T15:23:19;12.60;95.50
23124;DHT22;11731;48.592;8.858;2023-04-24T15:25:54;12.70;96.60
23124;DHT22;11731;48.592;8.858;2023-04-24T15:35:18;13.90;95.20
23124;DHT22;11731;48.592;8.858;2023-04-24T15:37:45;14.00;94.20
23124;DHT22;11731;48.592;8.858;2023-04-24T15:40:13;14.00;95.40
23124;DHT22;11731;48.592;8.858;2023-04-24T15:42:56;14.40;94.80
23124;DHT22;11731;48.592;8.858;2023-04-24T15:45:54;13.90;95.00
23124;DHT22;11731;48.592;8.858;2023-04-24T15:48:55;13.90;95.00
23124;DHT22;11731;48.592;8.858;2023-04-24T15:51:22;13.90;95.20
23124;DHT22;11731;48.592;8.858;2023-04-24T15:53:48;13.90;94.70
23124;DHT22;11731;48.592;8.858;2023-04-24T15:56:17;14.00;94.50
23124;DHT22;11731;48.592;8.858;2023-04-24T15:58:47;14.20;93.80
23124;DHT22;11731;48.592;8.858;2023-04-24T16:04:22;14.00;93.40
23124;DHT22;11731;48.592;8.858;2023-04-24T16:07:23;13.90;93.90
23124;DHT22;11731;48.592;8.858;2023-04-24T16:16:15;14.00;94.30
23124;DHT22;11731;48.592;8.858;2023-04-24T16:19:11;13.70;93.70
23124;DHT22;11731;48.592;8.858;2023-04-24T16:22:19;13.00;93.10
23124;DHT22;11731;48.592;8.858;2023-04-24T16:24:50;12.90;95.30
23124;DHT22;11731;48.592;8.858;2023-04-24T16:27:17;13.00;95.40
23124;DHT22;11731;48.592;8.858;2023-04-24T16:33:07;12.90;95.20
23124;DHT22;11731;48.592;8.858;2023-04-24T16:37:07;13.10;95.70
23124;DHT22;11731;48.592;8.858;2023-04-24T16:39:12;13.50;95.20
23124;DHT22;11731;48.592;8.858;2023-04-24T16:41:41;13.80;94.20
23124;DHT22;11731;48.592;8.858;2023-04-24T16:44:08;14.30;94.00
23124;DHT22;11731;48.592;8.858;2023-04-24T16:46:49;15.30;93.10
23124;DHT22;11731;48.592;8.858;2023-04-24T16:49:16;16.00;91.30
23124;DHT22;11731;48.592;8.858;2023-04-24T16:51:43;16.10;91.20
23124;DHT22;11731;48.592;8.858;2023-04-24T16:54:12;16.60;91.50
23124;DHT22;11731;48.592;8.858;2023-04-24T16:59:16;17.30;90.20
23124;DHT22;11731;48.592;8.858;2023-04-24T17:01:43;16.70;90.50
23124;DHT22;11731;48.592;8.858;2023-04-24T17:04:15;16.60;90.90
23124;DHT22;11731;48.592;8.858;2023-04-24T17:07:25;16.40;90.90
23124;DHT22;11731;48.592;8.858;2023-04-24T17:23:05;14.60;94.30
23124;DHT22;11731;48.592;8.858;2023-04-24T17:25:39;14.10;94.70
23124;DHT22;11731;48.592;8.858;2023-04-24T17:28:14;13.60;95.10
23124;DHT22;11731;48.592;8.858;2023-04-24T17:30:42;13.50;96.00
23124;DHT22;11731;48.592;8.858;2023-04-24T17:33:08;13.50;95.10
23124;DHT22;11731;48.592;8.858;2023-04-24T17:35:35;13.30;96.00
23124;DHT22;11731;48.592;8.858;2023-04-24T17:41:20;12.60;96.70
23124;DHT22;11731;48.592;8.858;2023-04-24T17:43:47;12.40;97.40
23124;DHT22;11731;48.592;8.858;2023-04-24T17:46:15;12.60;97.10
23124;DHT22;11731;48.592;8.858;2023-04-24T17:48:43;12.70;96.70
23124;DHT22;11731;48.592;8.858;2023-04-24T17:51:10;12.80;97.20
23124;DHT22;11731;48.592;8.858;2023-04-24T17:53:37;12.50;97.30
23124;DHT22;11731;48.592;8.858;2023-04-24T17:56:04;12.50;97.50
23124;DHT22;11731;48.592;8.858;2023-04-24T17:58:33;12.60;97.60
23124;DHT22;11731;48.592;8.858;2023-04-24T18:01:00;12.30;98.40
23124;DHT22;11731;48.592;8.858;2023-04-24T18:03:27;12.10;98.80
23124;DHT22;11731;48.592;8.858;2023-04-24T18:05:55;12.30;98.30
23124;DHT22;11731;48.592;8.858;2023-04-24T18:08:21;12.40;98.70
23124;DHT22;11731;48.592;8.858;2023-04-24T18:10:48;12.30;98.50
23124;DHT22;11731;48.592;8.858;2023-04-24T18:13:15;12.30;98.80
23124;DHT22;11731;48.592;8.858;2023-04-24T18:15:43;12.20;99.00
23124;DHT22;11731;48.592;8.858;2023-04-24T18:18:10;12.30;99.10
23124;DHT22;11731;48.592;8.858;2023-04-24T18:20:37;12.40;99.00
23124;DHT22;11731;48.592;8.858;2023-04-24T18:23:04;12.30;99.10
23124;DHT22;11731;48.592;8.858;2023-04-24T18:25:31;12.10;98.80
23124;DHT22;11731;48.592;8.858;2023-04-24T18:27:58;11.50;99.90
23124;DHT22;11731;48.592;8.858;2023-04-24T18:30:25;11.10;99.90
23124;DHT22;11731;48.592;8.858;2023-04-24T18:32:54;10.80;99.90
23124;DHT22;11731;48.592;8.858;2023-04-24T18:35:21;10.60;99.90
23124;DHT22;11731;48.592;8.858;2023-04-24T18:37:48;10.60;99.90
23124;DHT22;11731;48.592;8.858;2023-04-24T18:40:15;10.50;99.90
23124;DHT22;11731;48.592;8.858;2023-04-24T18:42:43;10.40;99.90
23124;DHT22;11731;48.592;8.858;2023-04-24T18:45:10;10.30;99.90
23124;DHT22;11731;48.592;8.858;2023-04-24T18:47:37;10.20;99.90
23124;DHT22;11731;48.592;8.858;2023-04-24T18:50:06;10.10;99.90
23124;DHT22;11731;48.592;8.858;2023-04-24T18:52:33;9.90;99.90
23124;DHT22;11731;48.592;8.858;2023-04-24T18:55:01;9.80;99.90
23124;DHT22;11731;48.592;8.858;2023-04-24T18:57:28;9.80;99.90
23124;DHT22;11731;48.592;8.858;2023-04-24T18:59:55;9.60;99.90
23124;DHT22;11731;48.592;8.858;2023-04-24T19:02:22;9.50;99.90
23124;DHT22;11731;48.592;8.858;2023-04-24T19:04:49;9.60;99.90
23124;DHT22;11731;48.592;8.858;2023-04-24T19:07:17;9.70;99.90
23124;DHT22;11731;48.592;8.858;2023-04-24T19:09:45;9.90;99.90